Time;durP1;ratioP1;P1;durP2;ratioP2;P2;SDS_P1;SDS_P2;PMS_P1;PMS_P2;Temp;Humidity;BMP_temperature;BMP_pressure;BME280_temperature;BME280_humidity;BME280_pressure;Samples;Min_cycle;Max_cycle;Signal;HPM_P1;HPM_P2
2022/07/03 00:01:24;;;;;;;5.10;2.25;;;26.30;67.30;;;;;;5042135;28;20447;-60
2022/07/03 00:03:49;;;;;;;2.83;2.33;;;26.20;67.40;;;;;;5021984;28;20872;-61
2022/07/03 00:06:15;;;;;;;4.32;2.35;;;26.20;67.60;;;;;;5024221;28;20036;-61
2022/07/03 00:08:40;;;;;;;5.07;2.30;;;26.10;67.70;;;;;;5025738;28;20416;-61
2022/07/03 00:11:06;;;;;;;5.00;2.45;;;26.10;67.70;;;;;;5043036;28;20492;-61
2022/07/03 00:13:32;;;;;;;4.15;2.88;;;26.10;67.90;;;;;;5039495;28;20049;-61
2022/07/03 00:15:57;;;;;;;2.92;2.45;;;26.10;68.00;;;;;;5024536;28;20503;-60
2022/07/03 00:18:23;;;;;;;3.67;2.45;;;26.00;68.00;;;;;;5038329;28;20049;-60
2022/07/03 00:20:49;;;;;;;2.72;2.22;;;26.00;68.10;;;;;;5043029;28;20029;-60
2022/07/03 00:23:17;;;;;;;5.55;2.38;;;26.00;68.20;;;;;;5022261;28;20017;-60
2022/07/03 00:25:43;;;;;;;5.13;2.33;;;25.90;68.30;;;;;;5038383;28;20128;-60
2022/07/03 00:28:08;;;;;;;4.05;2.75;;;25.90;68.30;;;;;;5037742;28;20104;-61
2022/07/03 00:30:34;;;;;;;2.95;2.10;;;25.90;68.50;;;;;;5039719;28;20044;-61
2022/07/03 00:33:01;;;;;;;4.72;2.60;;;25.80;68.40;;;;;;5025106;28;20037;-61
2022/07/03 00:35:27;;;;;;;3.38;2.55;;;25.80;68.60;;;;;;5036844;28;20480;-60
2022/07/03 00:37:52;;;;;;;4.22;2.38;;;25.70;68.70;;;;;;5038395;28;20051;-60
2022/07/03 00:40:18;;;;;;;5.25;2.50;;;25.70;68.90;;;;;;5041543;28;20053;-61
2022/07/03 00:42:44;;;;;;;5.60;2.40;;;25.70;69.00;;;;;;5022521;28;20017;-60
2022/07/03 00:45:10;;;;;;;7.63;2.63;;;25.60;69.10;;;;;;5024942;28;20061;-61
2022/07/03 00:47:36;;;;;;;3.03;2.33;;;25.60;69.10;;;;;;5038535;28;21686;-60
2022/07/03 00:50:06;;;;;;;4.03;2.42;;;25.60;69.20;;;;;;5038608;28;20037;-60
2022/07/03 00:52:31;;;;;;;3.42;2.47;;;25.50;69.40;;;;;;5022743;28;20452;-61
2022/07/03 00:54:58;;;;;;;2.85;2.20;;;25.50;69.40;;;;;;5024148;28;20036;-61
2022/07/03 00:57:25;;;;;;;2.90;2.38;;;25.50;69.50;;;;;;5039933;28;21322;-60
2022/07/03 00:59:51;;;;;;;5.93;2.50;;;25.40;69.60;;;;;;5025424;28;20040;-61
2022/07/03 01:02:42;;;;;;;2.92;2.40;;;25.40;69.60;;;;;;5040617;28;20017;-61
2022/07/03 01:05:15;;;;;;;2.50;2.10;;;25.40;69.90;;;;;;5038594;28;20029;-60
2022/07/03 01:07:46;;;;;;;2.90;2.28;;;25.30;69.80;;;;;;5038017;28;20112;-62
2022/07/03 01:10:25;;;;;;;3.08;2.13;;;25.30;69.90;;;;;;5039627;28;20032;-61
2022/07/03 01:12:54;;;;;;;4.45;2.55;;;25.20;69.90;;;;;;5041949;28;20421;-60
2022/07/03 01:15:52;;;;;;;4.20;2.45;;;25.20;70.00;;;;;;5038938;28;20029;-61
2022/07/03 01:18:23;;;;;;;3.50;2.65;;;25.20;70.30;;;;;;5036624;28;20102;-60
2022/07/03 01:20:53;;;;;;;5.40;1.98;;;25.20;70.30;;;;;;5040522;28;20361;-61
2022/07/03 01:23:31;;;;;;;3.15;2.28;;;25.20;70.30;;;;;;5042241;28;20024;-61
2022/07/03 01:25:56;;;;;;;2.55;2.10;;;25.10;70.40;;;;;;5037541;28;20021;-60
2022/07/03 01:28:24;;;;;;;4.47;2.50;;;25.10;70.40;;;;;;5037143;28;20044;-61
2022/07/03 01:30:51;;;;;;;3.17;2.42;;;25.10;70.50;;;;;;5038911;28;20547;-61
2022/07/03 01:33:17;;;;;;;3.58;2.05;;;25.00;70.60;;;;;;5035658;28;20025;-61
2022/07/03 01:35:54;;;;;;;4.47;2.38;;;25.00;70.80;;;;;;5038843;28;20112;-62
2022/07/03 01:38:19;;;;;;;3.60;2.28;;;25.00;70.90;;;;;;5040077;28;20033;-60
2022/07/03 01:40:45;;;;;;;2.65;2.40;;;24.90;70.90;;;;;;5020626;28;20519;-60
2022/07/03 01:43:11;;;;;;;6.93;2.20;;;24.90;71.00;;;;;;5022555;28;20076;-61
2022/07/03 01:45:47;;;;;;;3.10;2.22;;;24.90;71.10;;;;;;5038087;28;20175;-62
2022/07/03 01:48:13;;;;;;;3.25;2.33;;;24.90;71.20;;;;;;5038225;28;20451;-61
2022/07/03 01:50:39;;;;;;;2.70;2.35;;;24.80;71.40;;;;;;5020719;28;20111;-60
2022/07/03 01:53:06;;;;;;;3.10;2.55;;;24.80;71.40;;;;;;5038614;28;20075;-61
2022/07/03 01:55:32;;;;;;;3.80;2.40;;;24.80;71.50;;;;;;5036675;28;20090;-60
2022/07/03 01:57:58;;;;;;;2.80;2.05;;;24.70;71.60;;;;;;5038206;28;20139;-60
2022/07/03 02:00:23;;;;;;;2.40;2.20;;;24.70;71.70;;;;;;5021845;28;20041;-60
2022/07/03 02:03:01;;;;;;;2.70;2.50;;;24.70;71.80;;;;;;5040604;28;20393;-61
2022/07/03 02:05:38;;;;;;;3.72;2.20;;;24.60;71.80;;;;;;5021580;28;20026;-60
2022/07/03 02:08:35;;;;;;;4.03;2.70;;;24.60;71.90;;;;;;5037518;28;20385;-61
2022/07/03 02:11:19;;;;;;;4.05;2.35;;;24.60;71.90;;;;;;5036140;28;20556;-61
2022/07/03 02:13:51;;;;;;;3.25;2.90;;;24.60;72.10;;;;;;5039773;28;20207;-60
2022/07/03 02:16:19;;;;;;;5.05;2.53;;;24.50;72.20;;;;;;5039311;28;20028;-61
2022/07/03 02:18:45;;;;;;;2.65;2.17;;;24.50;72.30;;;;;;5036301;28;20024;-60
2022/07/03 02:21:18;;;;;;;6.07;2.70;;;24.50;72.40;;;;;;5018915;28;20056;-60
2022/07/03 02:24:02;;;;;;;4.10;2.60;;;24.40;72.40;;;;;;5036342;28;20065;-60
2022/07/03 02:26:32;;;;;;;5.43;2.58;;;24.40;72.50;;;;;;5034530;28;20025;-60
2022/07/03 02:29:05;;;;;;;5.13;2.42;;;24.50;72.60;;;;;;5021289;28;20128;-61
2022/07/03 02:31:39;;;;;;;3.50;2.40;;;24.40;72.60;;;;;;5039631;28;20364;-64
2022/07/03 02:34:05;;;;;;;4.40;2.65;;;24.40;72.70;;;;;;5017204;28;20028;-64
2022/07/03 02:36:30;;;;;;;3.25;2.95;;;24.40;72.90;;;;;;5021345;28;20376;-63
2022/07/03 02:38:57;;;;;;;4.13;3.65;;;24.30;73.00;;;;;;5037323;28;20063;-63
2022/07/03 02:41:46;;;;;;;5.97;3.35;;;24.20;73.00;;;;;;5040173;28;20111;-64
2022/07/03 02:44:32;;;;;;;4.03;3.00;;;24.20;73.20;;;;;;5040482;28;20036;-62
2022/07/03 02:47:03;;;;;;;4.65;2.95;;;24.20;73.20;;;;;;5020052;28;20052;-62
2022/07/03 02:49:45;;;;;;;5.00;3.25;;;24.20;73.40;;;;;;5019819;28;20045;-61
2022/07/03 02:52:44;;;;;;;5.30;3.20;;;24.20;73.50;;;;;;5037905;28;20576;-61
2022/07/03 02:55:41;;;;;;;3.50;2.53;;;24.10;73.60;;;;;;5036418;28;20515;-62
2022/07/03 02:58:33;;;;;;;2.90;2.70;;;24.00;73.80;;;;;;5032876;28;20078;-61
2022/07/03 03:01:09;;;;;;;5.80;3.50;;;24.00;74.00;;;;;;5038227;28;20212;-62
2022/07/03 03:03:36;;;;;;;4.03;3.28;;;23.90;74.10;;;;;;5019569;28;20033;-61
2022/07/03 03:06:04;;;;;;;4.28;3.33;;;24.00;74.10;;;;;;5036288;28;20044;-60
2022/07/03 03:08:47;;;;;;;5.07;3.20;;;24.00;74.00;;;;;;5006065;28;20017;-62
2022/07/03 03:11:37;;;;;;;5.20;3.42;;;24.00;74.10;;;;;;5022623;28;20017;-61
2022/07/03 03:14:03;;;;;;;4.63;3.13;;;23.90;74.20;;;;;;5037373;28;20059;-61
2022/07/03 03:16:29;;;;;;;4.18;3.78;;;23.90;74.20;;;;;;5022125;28;20041;-61
2022/07/03 03:18:54;;;;;;;3.67;3.13;;;23.90;74.30;;;;;;5041215;28;20029;-62
2022/07/03 03:21:20;;;;;;;4.30;3.10;;;23.90;74.40;;;;;;5041701;28;20526;-63
2022/07/03 03:23:50;;;;;;;3.83;3.33;;;23.80;75.10;;;;;;5027224;28;20111;-61
2022/07/03 03:26:23;;;;;;;8.20;3.35;;;23.80;74.60;;;;;;5024228;28;20473;-62
2022/07/03 03:28:49;;;;;;;6.07;3.55;;;23.80;74.80;;;;;;5041095;28;20033;-60
2022/07/03 03:31:15;;;;;;;5.47;3.13;;;23.70;74.90;;;;;;5042210;28;20021;-62
2022/07/03 03:33:43;;;;;;;3.53;3.20;;;23.70;75.00;;;;;;5041800;28;20029;-61
2022/07/03 03:36:10;;;;;;;3.55;3.10;;;23.70;75.20;;;;;;5026119;28;20025;-61
2022/07/03 03:38:36;;;;;;;6.47;3.22;;;23.60;75.20;;;;;;5026372;28;20128;-61
2022/07/03 03:41:02;;;;;;;10.60;3.63;;;23.60;75.40;;;;;;5042061;28;20258;-60
2022/07/03 03:43:28;;;;;;;8.07;3.47;;;23.60;75.40;;;;;;5040237;28;20037;-61
2022/07/03 03:45:53;;;;;;;8.23;3.22;;;23.50;75.40;;;;;;5024516;28;20719;-62
2022/07/03 03:48:19;;;;;;;6.57;3.15;;;23.50;75.50;;;;;;5042530;28;20121;-62
2022/07/03 03:50:44;;;;;;;4.63;3.42;;;23.50;75.60;;;;;;5022654;28;20096;-61
2022/07/03 03:53:11;;;;;;;5.03;3.33;;;23.50;75.60;;;;;;5041499;28;20365;-61
2022/07/03 03:55:36;;;;;;;6.00;3.38;;;23.40;75.70;;;;;;5039042;28;20052;-61
2022/07/03 03:58:04;;;;;;;7.05;2.78;;;23.50;75.90;;;;;;5041751;28;20025;-60
2022/07/03 04:00:30;;;;;;;7.35;3.10;;;23.40;75.80;;;;;;5042072;28;20035;-61
2022/07/03 04:02:55;;;;;;;6.00;2.70;;;23.40;75.80;;;;;;5041925;28;20352;-61
2022/07/03 04:05:21;;;;;;;5.93;3.10;;;23.50;75.90;;;;;;5038354;28;20045;-61
2022/07/03 04:07:46;;;;;;;7.88;3.35;;;23.50;75.80;;;;;;5042512;28;20076;-61
2022/07/03 04:10:12;;;;;;;5.10;3.20;;;23.40;75.80;;;;;;5041214;28;20112;-62
2022/07/03 04:12:37;;;;;;;4.93;2.90;;;23.40;75.90;;;;;;5041017;28;20496;-60
2022/07/03 04:15:03;;;;;;;7.82;2.92;;;23.30;75.90;;;;;;5042681;28;20518;-62
2022/07/03 04:17:29;;;;;;;6.00;3.10;;;23.30;76.00;;;;;;5038597;28;20036;-62
2022/07/03 04:19:55;;;;;;;7.90;2.97;;;23.30;76.10;;;;;;5039239;28;20053;-62
2022/07/03 04:22:20;;;;;;;4.45;2.75;;;23.30;76.60;;;;;;5040578;28;20378;-61
2022/07/03 04:24:46;;;;;;;10.63;3.63;;;23.30;76.30;;;;;;5042885;28;20052;-61
2022/07/03 04:27:11;;;;;;;9.75;3.25;;;23.20;76.30;;;;;;5042037;28;20031;-61
2022/07/03 04:29:37;;;;;;;6.22;3.13;;;23.20;76.30;;;;;;5041467;28;20025;-63
2022/07/03 04:32:03;;;;;;;9.25;3.55;;;23.20;76.30;;;;;;5039576;28;20041;-61
2022/07/03 04:34:28;;;;;;;3.70;2.92;;;23.20;76.40;;;;;;5039960;28;20033;-61
2022/07/03 04:36:54;;;;;;;5.18;3.20;;;23.10;76.50;;;;;;5042017;28;20036;-61
2022/07/03 04:39:19;;;;;;;5.75;2.67;;;23.10;76.50;;;;;;5042700;28;20049;-61
2022/07/03 04:41:45;;;;;;;4.05;2.42;;;23.10;76.50;;;;;;5039257;28;20112;-62
2022/07/03 04:44:10;;;;;;;3.67;2.95;;;23.10;76.50;;;;;;5041207;28;20124;-60
2022/07/03 04:46:36;;;;;;;10.20;3.05;;;23.10;76.60;;;;;;5036914;28;20074;-63
2022/07/03 04:49:01;;;;;;;5.72;2.97;;;23.10;76.70;;;;;;5035099;28;20112;-62
2022/07/03 04:51:27;;;;;;;7.43;3.42;;;23.10;76.80;;;;;;5039399;28;20071;-61
2022/07/03 04:53:52;;;;;;;13.32;2.72;;;23.00;76.70;;;;;;5040486;28;20037;-62
2022/07/03 04:56:18;;;;;;;3.97;3.20;;;23.00;76.80;;;;;;5038568;28;20049;-62
2022/07/03 04:58:44;;;;;;;3.05;2.45;;;23.00;76.90;;;;;;5040795;28;20017;-61
2022/07/03 05:01:10;;;;;;;6.07;3.22;;;23.00;76.90;;;;;;5038357;28;20366;-61
2022/07/03 05:03:35;;;;;;;5.78;3.20;;;23.00;76.90;;;;;;5039226;28;20310;-61
2022/07/03 05:06:01;;;;;;;4.10;3.03;;;23.00;77.00;;;;;;5041677;28;20043;-62
2022/07/03 05:08:26;;;;;;;5.88;3.00;;;23.00;77.00;;;;;;5037726;28;20113;-61
2022/07/03 05:10:52;;;;;;;5.38;3.03;;;22.90;77.00;;;;;;5038496;28;20567;-61
2022/07/03 05:13:18;;;;;;;2.75;2.38;;;22.90;77.20;;;;;;5039675;28;20080;-61
2022/07/03 05:15:43;;;;;;;5.28;2.80;;;22.90;77.30;;;;;;5038428;28;20118;-60
2022/07/03 05:18:09;;;;;;;4.85;2.75;;;22.90;77.40;;;;;;5041672;28;20166;-62
2022/07/03 05:20:34;;;;;;;6.72;3.13;;;22.90;77.40;;;;;;5040892;28;20059;-61
2022/07/03 05:23:01;;;;;;;4.93;2.85;;;22.90;77.50;;;;;;5040778;28;20461;-61
2022/07/03 05:25:27;;;;;;;3.20;2.60;;;22.90;77.50;;;;;;5021256;28;20025;-61
2022/07/03 05:27:53;;;;;;;3.90;3.00;;;22.80;77.40;;;;;;5022698;28;20115;-61
2022/07/03 05:30:19;;;;;;;6.68;2.97;;;22.80;77.40;;;;;;5040935;28;20029;-61
2022/07/03 05:32:45;;;;;;;5.50;3.10;;;22.90;77.40;;;;;;5040673;28;20075;-62
2022/07/03 05:35:10;;;;;;;6.38;2.47;;;22.80;77.50;;;;;;5021445;28;20032;-61
2022/07/03 05:37:36;;;;;;;4.95;2.67;;;22.90;77.70;;;;;;5038782;28;20024;-62
2022/07/03 05:40:03;;;;;;;4.70;2.65;;;22.80;77.70;;;;;;5036870;28;20072;-61
2022/07/03 05:42:28;;;;;;;4.00;2.60;;;22.80;77.70;;;;;;5038131;28;20031;-62
2022/07/03 05:44:54;;;;;;;7.00;2.97;;;22.80;77.80;;;;;;5040297;28;20025;-60
2022/07/03 05:47:19;;;;;;;7.90;2.67;;;22.80;77.80;;;;;;5039866;28;20037;-62
2022/07/03 05:49:45;;;;;;;4.10;2.53;;;22.80;77.80;;;;;;5037671;28;20587;-61
2022/07/03 05:52:10;;;;;;;8.68;2.92;;;22.80;77.60;;;;;;5039433;28;20507;-61
2022/07/03 05:54:36;;;;;;;7.03;2.70;;;22.80;77.60;;;;;;5039623;28;20033;-61
2022/07/03 05:57:02;;;;;;;5.20;2.80;;;22.80;77.50;;;;;;5039684;28;20401;-60
2022/07/03 05:59:27;;;;;;;5.15;2.97;;;22.80;77.50;;;;;;5024414;28;20709;-62
2022/07/03 06:01:53;;;;;;;3.80;2.80;;;22.80;77.50;;;;;;5038409;28;20082;-62
2022/07/03 06:04:18;;;;;;;3.67;2.42;;;22.80;77.60;;;;;;5035957;28;20033;-62
2022/07/03 06:06:44;;;;;;;7.20;2.70;;;22.80;77.90;;;;;;5038076;28;20333;-63
2022/07/03 06:09:09;;;;;;;4.28;2.65;;;22.80;78.00;;;;;;5040751;28;20425;-61
2022/07/03 06:11:35;;;;;;;7.65;3.08;;;22.80;78.20;;;;;;5037866;28;20615;-62
2022/07/03 06:14:00;;;;;;;3.35;2.50;;;22.80;78.20;;;;;;5037475;28;20110;-60
2022/07/03 06:16:26;;;;;;;3.25;2.45;;;22.70;78.20;;;;;;5037552;28;20507;-62
2022/07/03 06:18:51;;;;;;;7.03;2.72;;;22.80;78.30;;;;;;5039102;28;20114;-62
2022/07/03 06:21:17;;;;;;;3.00;2.35;;;22.70;78.20;;;;;;5021197;28;20134;-64
2022/07/03 06:23:43;;;;;;;2.70;2.40;;;22.70;78.20;;;;;;5039400;28;20052;-62
2022/07/03 06:26:08;;;;;;;3.88;2.80;;;22.70;78.20;;;;;;5038413;28;20029;-61
2022/07/03 06:28:34;;;;;;;2.85;2.38;;;22.70;78.30;;;;;;5037791;28;20769;-61
2022/07/03 06:30:59;;;;;;;4.43;2.80;;;22.70;78.20;;;;;;5039334;28;20041;-62
2022/07/03 06:33:25;;;;;;;4.93;2.42;;;22.70;78.20;;;;;;5037755;28;20044;-61
2022/07/03 06:35:50;;;;;;;3.50;2.60;;;22.70;78.30;;;;;;5037247;28;20039;-60
2022/07/03 06:38:16;;;;;;;2.92;2.28;;;22.70;78.30;;;;;;5039726;28;20261;-60
2022/07/03 06:40:41;;;;;;;3.70;2.47;;;22.80;78.50;;;;;;5040322;28;20088;-61
2022/07/03 06:43:07;;;;;;;3.15;2.78;;;22.70;78.60;;;;;;5036692;28;20477;-61
2022/07/03 06:45:32;;;;;;;3.00;2.00;;;22.70;78.80;;;;;;5036455;28;20021;-61
2022/07/03 06:47:58;;;;;;;4.03;2.67;;;22.70;79.00;;;;;;5022803;28;20032;-61
2022/07/03 06:50:23;;;;;;;3.80;2.70;;;22.70;79.10;;;;;;5037987;28;20087;-61
2022/07/03 06:52:49;;;;;;;5.10;2.40;;;22.70;79.00;;;;;;5039283;28;20035;-61
2022/07/03 06:55:14;;;;;;;2.83;2.10;;;22.70;78.90;;;;;;5037038;28;20047;-62
2022/07/03 06:57:40;;;;;;;3.25;2.50;;;22.70;79.10;;;;;;5036312;28;20566;-61
2022/07/03 07:00:06;;;;;;;3.53;2.70;;;22.70;79.00;;;;;;5037230;28;20025;-61
2022/07/03 07:02:32;;;;;;;2.50;2.20;;;22.70;79.00;;;;;;5020425;28;20475;-62
2022/07/03 07:04:57;;;;;;;2.83;2.40;;;22.70;79.10;;;;;;5021169;28;20093;-61
2022/07/03 07:07:23;;;;;;;2.80;2.30;;;22.70;79.20;;;;;;5036920;28;20033;-61
2022/07/03 07:09:48;;;;;;;2.00;1.80;;;22.70;79.20;;;;;;5036608;28;20033;-61
2022/07/03 07:12:14;;;;;;;6.13;2.47;;;22.70;79.30;;;;;;5036689;28;20033;-61
2022/07/03 07:14:39;;;;;;;2.15;1.95;;;22.70;79.40;;;;;;5021696;28;20028;-61
2022/07/03 07:17:05;;;;;;;5.78;2.35;;;22.70;80.00;;;;;;5039293;28;20432;-61
2022/07/03 07:19:31;;;;;;;4.35;2.20;;;22.70;79.40;;;;;;5038166;28;20491;-61
2022/07/03 07:21:56;;;;;;;2.63;2.08;;;22.70;79.50;;;;;;5038824;28;20308;-62
2022/07/03 07:24:22;;;;;;;2.03;1.85;;;22.70;79.50;;;;;;5036957;28;20094;-61
2022/07/03 07:26:47;;;;;;;4.97;2.20;;;22.70;79.60;;;;;;5037810;28;20155;-61
2022/07/03 07:29:13;;;;;;;3.53;2.20;;;22.70;79.50;;;;;;5039827;28;20136;-61
2022/07/03 07:31:38;;;;;;;4.22;2.35;;;22.70;79.60;;;;;;5037419;28;20029;-61
2022/07/03 07:34:04;;;;;;;4.13;2.25;;;22.70;79.50;;;;;;5036287;28;20044;-60
2022/07/03 07:36:31;;;;;;;3.00;2.30;;;22.70;79.50;;;;;;5038610;28;20029;-62
2022/07/03 07:38:56;;;;;;;2.45;2.08;;;22.70;79.60;;;;;;5039731;28;20508;-62
2022/07/03 07:41:22;;;;;;;4.80;2.30;;;22.70;79.50;;;;;;5039828;28;20127;-61
2022/07/03 07:43:47;;;;;;;2.00;1.90;;;22.80;79.60;;;;;;5038764;28;20063;-61
2022/07/03 07:46:13;;;;;;;3.83;2.30;;;22.80;79.60;;;;;;5036032;28;20821;-61
2022/07/03 07:48:38;;;;;;;2.65;1.90;;;22.70;79.60;;;;;;5034642;28;20119;-61
2022/07/03 07:51:04;;;;;;;3.72;2.08;;;22.70;79.50;;;;;;5037332;28;20052;-62
2022/07/03 07:53:29;;;;;;;3.60;2.22;;;22.70;79.60;;;;;;5039999;28;20113;-61
2022/07/03 07:55:55;;;;;;;2.83;2.10;;;22.80;79.50;;;;;;5039122;28;20448;-61
2022/07/03 07:58:22;;;;;;;3.17;2.45;;;22.70;79.40;;;;;;5040465;28;20557;-61
2022/07/03 08:06:15;;;;;;;4.20;2.28;;;22.80;79.80;;;;;;5042972;28;20392;-62
2022/07/03 08:08:41;;;;;;;3.90;2.00;;;22.80;79.80;;;;;;5026609;28;20017;-62
2022/07/03 08:11:06;;;;;;;3.80;2.10;;;22.80;79.80;;;;;;5042268;28;20037;-61
2022/07/03 08:13:32;;;;;;;4.07;1.95;;;22.80;79.90;;;;;;5040316;28;20041;-61
2022/07/03 08:15:58;;;;;;;3.28;2.20;;;22.90;80.10;;;;;;5041087;28;20040;-62
2022/07/03 08:18:24;;;;;;;3.53;2.25;;;22.80;80.00;;;;;;5039038;28;20048;-61
2022/07/03 08:20:49;;;;;;;2.60;1.73;;;22.80;79.80;;;;;;5041977;28;20115;-62
2022/07/03 08:23:14;;;;;;;7.03;1.95;;;22.90;79.70;;;;;;5042619;28;20047;-60
2022/07/03 08:25:40;;;;;;;3.33;1.90;;;22.90;79.50;;;;;;5040414;28;20499;-62
2022/07/03 08:28:05;;;;;;;11.23;2.15;;;22.90;79.40;;;;;;5021050;28;20037;-63
2022/07/03 08:30:31;;;;;;;9.10;2.17;;;22.90;79.40;;;;;;5041488;28;20033;-62
2022/07/03 08:32:57;;;;;;;6.18;2.70;;;22.90;79.40;;;;;;5040678;28;20033;-60
2022/07/03 08:35:23;;;;;;;12.35;2.75;;;22.90;79.20;;;;;;5040382;28;20036;-60
2022/07/03 08:37:48;;;;;;;9.60;2.40;;;23.00;79.20;;;;;;5039920;28;20090;-61
2022/07/03 08:40:15;;;;;;;17.23;2.60;;;23.00;79.30;;;;;;5041238;28;20064;-61
2022/07/03 08:42:57;;;;;;;8.30;2.50;;;23.00;79.10;;;;;;5007477;28;20448;-61
2022/07/03 08:45:23;;;;;;;11.15;2.17;;;23.00;79.10;;;;;;5041744;28;20436;-62
2022/07/03 08:47:49;;;;;;;23.38;2.55;;;23.10;79.00;;;;;;5043020;28;20037;-60
2022/07/03 08:50:15;;;;;;;12.65;2.35;;;23.10;78.90;;;;;;5024915;28;20464;-62
2022/07/03 08:52:42;;;;;;;14.45;3.67;;;23.10;78.70;;;;;;5041907;28;20119;-61
2022/07/03 08:55:08;;;;;;;20.55;3.90;;;23.20;78.60;;;;;;5017414;28;20056;-61
2022/07/03 08:57:35;;;;;;;29.13;3.47;;;23.20;78.30;;;;;;5018539;28;20124;-62
2022/07/03 09:00:01;;;;;;;20.75;3.17;;;23.20;78.40;;;;;;5034451;28;20032;-61
2022/07/03 09:02:27;;;;;;;16.38;3.08;;;23.20;78.30;;;;;;5034240;28;20112;-61
2022/07/03 09:04:53;;;;;;;23.55;4.13;;;23.20;78.20;;;;;;5004341;28;20037;-61
2022/07/03 09:07:19;;;;;;;24.40;3.67;;;23.30;78.20;;;;;;5021197;28;20067;-63
2022/07/03 09:09:44;;;;;;;21.48;4.30;;;23.30;78.20;;;;;;5038202;28;20112;-63
2022/07/03 09:12:10;;;;;;;22.63;3.92;;;23.30;78.00;;;;;;5039383;28;20036;-63
2022/07/03 09:14:36;;;;;;;28.58;4.22;;;23.40;77.90;;;;;;5033561;28;20035;-63
2022/07/03 09:17:01;;;;;;;31.88;5.57;;;23.40;77.80;;;;;;5021055;28;20029;-63
2022/07/03 09:19:43;;;;;;;35.85;5.28;;;23.40;77.20;;;;;;5032124;28;20124;-65
2022/07/03 09:22:26;;;;;;;36.60;5.57;;;23.40;76.90;;;;;;5040352;28;20196;-63
2022/07/03 09:24:53;;;;;;;45.88;5.93;;;23.50;76.50;;;;;;5040899;28;20491;-64
2022/07/03 09:27:21;;;;;;;78.82;8.13;;;23.50;75.70;;;;;;5026569;28;20017;-64
2022/07/03 09:30:00;;;;;;;46.70;7.10;;;23.60;75.90;;;;;;5037736;28;20029;-61
2022/07/03 09:32:30;;;;;;;89.70;8.88;;;23.60;76.00;;;;;;5040253;28;20024;-61
2022/07/03 09:35:19;;;;;;;86.35;9.80;;;23.60;76.00;;;;;;5034814;28;20045;-61
2022/07/03 09:37:49;;;;;;;98.07;10.45;;;23.70;75.90;;;;;;5041031;28;20033;-61
2022/07/03 09:40:16;;;;;;;66.88;9.82;;;23.70;75.70;;;;;;5039617;28;20580;-61
2022/07/03 09:43:00;;;;;;;87.05;9.80;;;23.70;75.20;;;;;;5038036;28;20071;-61
2022/07/03 09:45:26;;;;;;;112.75;10.00;;;23.80;75.10;;;;;;5022807;28;20085;-61
2022/07/03 09:47:51;;;;;;;77.50;9.52;;;23.80;74.70;;;;;;5040005;28;20080;-61
2022/07/03 09:50:17;;;;;;;79.63;10.10;;;23.80;74.60;;;;;;5037968;28;20040;-61
2022/07/03 09:52:46;;;;;;;103.72;12.82;;;23.80;74.40;;;;;;5024346;28;20041;-62
2022/07/03 09:55:11;;;;;;;94.63;10.98;;;23.90;74.10;;;;;;5040927;28;20037;-61
2022/07/03 09:58:01;;;;;;;103.55;11.13;;;23.90;74.10;;;;;;5041394;28;20098;-61
2022/07/03 10:00:28;;;;;;;123.53;12.02;;;24.00;73.80;;;;;;5037549;28;20048;-62
2022/07/03 10:03:08;;;;;;;95.68;10.25;;;24.00;73.50;;;;;;5041232;28;20116;-61
2022/07/03 10:05:38;;;;;;;84.70;10.13;;;24.10;73.50;;;;;;5038235;28;20053;-60
2022/07/03 10:08:04;;;;;;;89.30;10.65;;;24.10;73.20;;;;;;5039702;28;20079;-61
2022/07/03 10:10:31;;;;;;;88.63;9.98;;;24.10;73.00;;;;;;5037192;28;20017;-61
2022/07/03 10:12:57;;;;;;;76.35;9.32;;;24.10;72.60;;;;;;5039288;28;20042;-61
2022/07/03 10:15:24;;;;;;;114.90;11.02;;;24.10;72.10;;;;;;5015395;28;20025;-61
2022/07/03 10:17:51;;;;;;;87.25;10.38;;;24.20;71.90;;;;;;5013700;28;20112;-61
2022/07/03 10:20:34;;;;;;;89.25;10.20;;;24.20;71.70;;;;;;5012022;28;20024;-62
2022/07/03 10:23:00;;;;;;;97.32;11.82;;;24.20;71.40;;;;;;5021912;28;20051;-63
2022/07/03 10:25:25;;;;;;;97.78;11.52;;;24.30;71.40;;;;;;5035001;28;20044;-64
2022/07/03 10:27:51;;;;;;;100.47;10.77;;;24.30;70.70;;;;;;5035175;28;20051;-65
2022/07/03 10:30:19;;;;;;;87.20;10.52;;;24.30;70.80;;;;;;5021524;28;20024;-63
2022/07/03 10:32:46;;;;;;;82.80;10.13;;;24.40;70.50;;;;;;5020446;28;20365;-64
2022/07/03 10:35:17;;;;;;;84.57;9.00;;;24.40;69.80;;;;;;5017598;28;20071;-65
2022/07/03 10:38:03;;;;;;;84.22;9.52;;;24.50;69.40;;;;;;5037642;28;20344;-64
2022/07/03 10:46:10;;;;;;;61.10;7.32;;;24.70;68.80;;;;;;5025092;28;20044;-64
2022/07/03 10:48:57;;;;;;;71.15;7.60;;;24.80;68.70;;;;;;5019248;28;20383;-64
2022/07/03 10:51:23;;;;;;;65.20;7.72;;;24.80;68.60;;;;;;5033427;28;20128;-64
2022/07/03 10:53:49;;;;;;;83.20;9.35;;;24.90;68.50;;;;;;5032466;28;20108;-64
2022/07/03 10:56:15;;;;;;;74.95;9.23;;;25.00;67.80;;;;;;5028363;28;20495;-64
2022/07/03 10:58:57;;;;;;;55.17;8.18;;;25.10;67.30;;;;;;5027684;28;20454;-61
2022/07/03 11:01:30;;;;;;;72.90;8.20;;;25.20;67.20;;;;;;5002982;28;20635;-62
2022/07/03 11:04:00;;;;;;;58.88;7.63;;;25.30;67.00;;;;;;5031115;28;20104;-62
2022/07/03 11:06:44;;;;;;;88.88;9.68;;;25.40;66.70;;;;;;5030436;28;20036;-61
2022/07/03 11:09:11;;;;;;;75.65;8.48;;;25.50;66.40;;;;;;5034525;28;20086;-61
2022/07/03 11:11:59;;;;;;;79.80;10.52;;;25.60;66.10;;;;;;5031765;28;20040;-61
2022/07/03 11:14:26;;;;;;;84.78;9.35;;;25.70;65.80;;;;;;5029911;28;20139;-61
2022/07/03 11:17:19;;;;;;;89.03;10.52;;;25.90;65.50;;;;;;5029762;28;20543;-62
2022/07/03 11:22:49;;;;;;;89.03;9.40;;;26.10;64.80;;;;;;5030934;28;20028;-61
2022/07/03 11:25:14;;;;;;;57.53;7.53;;;26.20;64.40;;;;;;5029726;28;20021;-60
2022/07/03 11:27:40;;;;;;;76.32;8.50;;;26.30;64.60;;;;;;5016766;28;20039;-62
2022/07/03 11:30:05;;;;;;;54.03;7.70;;;26.40;64.60;;;;;;5027398;28;20389;-62
2022/07/03 11:32:53;;;;;;;74.50;7.55;;;26.50;64.50;;;;;;5021053;28;20468;-61
2022/07/03 11:35:51;;;;;;;55.33;7.35;;;26.50;64.10;;;;;;5029891;28;20029;-62
2022/07/03 11:38:25;;;;;;;60.47;7.07;;;26.70;63.80;;;;;;5029034;28;20314;-61
2022/07/03 11:40:52;;;;;;;46.85;6.45;;;26.80;63.40;;;;;;5032754;28;20122;-61
2022/07/03 11:43:17;;;;;;;83.72;8.07;;;26.90;63.40;;;;;;5017420;28;20024;-62
2022/07/03 11:45:43;;;;;;;86.85;8.60;;;27.00;63.30;;;;;;5020695;28;20036;-61
2022/07/03 11:48:10;;;;;;;61.10;6.97;;;27.10;62.50;;;;;;5021677;28;20040;-61
2022/07/03 11:50:37;;;;;;;63.67;8.18;;;27.20;62.30;;;;;;5035048;28;20739;-62
2022/07/03 11:53:15;;;;;;;51.22;6.50;;;27.30;62.40;;;;;;5007609;28;20033;-61
2022/07/03 11:55:56;;;;;;;62.17;7.47;;;27.40;62.00;;;;;;5034773;28;20028;-62
2022/07/03 11:58:21;;;;;;;71.53;8.23;;;27.50;62.00;;;;;;5028986;28;20074;-61
2022/07/03 12:00:47;;;;;;;50.13;5.80;;;27.60;61.90;;;;;;5035198;28;20041;-61
2022/07/03 12:03:20;;;;;;;58.15;6.57;;;27.60;61.50;;;;;;5038523;28;20053;-61
2022/07/03 12:05:57;;;;;;;49.28;6.55;;;27.70;61.10;;;;;;5027509;28;20030;-62
2022/07/03 12:08:32;;;;;;;38.78;6.78;;;27.80;61.00;;;;;;5029250;28;20128;-62
2022/07/03 12:10:59;;;;;;;;;;;27.80;60.80;;;;;;5036989;28;20113;-63
2022/07/03 12:13:25;;;;;;;56.85;8.00;;;27.90;60.80;;;;;;5036708;28;20400;-62
2022/07/03 12:15:50;;;;;;;61.72;7.13;;;28.00;60.80;;;;;;5035590;28;20075;-61
2022/07/03 12:18:16;;;;;;;66.07;8.60;;;28.00;59.80;;;;;;5035133;28;20128;-61
2022/07/03 12:20:42;;;;;;;74.97;10.27;;;28.10;59.90;;;;;;5042365;28;20197;-62
2022/07/03 12:23:08;;;;;;;61.20;7.55;;;28.10;59.70;;;;;;5005311;28;20025;-62
2022/07/03 12:25:41;;;;;;;64.28;8.82;;;28.20;59.40;;;;;;5038512;28;20021;-63
2022/07/03 12:28:08;;;;;;;72.28;7.65;;;28.30;59.30;;;;;;5032710;28;20149;-63
2022/07/03 12:30:33;;;;;;;74.65;8.98;;;28.30;59.10;;;;;;5033807;28;20025;-64
2022/07/03 12:32:59;;;;;;;64.95;7.72;;;28.30;59.30;;;;;;5042095;28;20031;-61
2022/07/03 12:35:25;;;;;;;86.93;8.88;;;28.40;58.80;;;;;;5020130;28;20037;-65
2022/07/03 12:37:51;;;;;;;55.47;7.53;;;28.50;58.60;;;;;;5016401;28;20040;-63
2022/07/03 12:40:17;;;;;;;65.35;7.40;;;28.60;58.30;;;;;;5029199;28;20045;-62
2022/07/03 12:42:45;;;;;;;61.47;6.32;;;28.60;58.30;;;;;;5035043;28;20021;-61
2022/07/03 12:45:12;;;;;;;52.92;6.60;;;28.70;58.20;;;;;;5022395;28;20693;-61
2022/07/03 12:47:37;;;;;;;57.00;6.45;;;28.70;57.90;;;;;;5018591;28;20063;-61
2022/07/03 12:50:06;;;;;;;58.95;7.70;;;28.80;57.90;;;;;;5034889;28;20108;-61
2022/07/03 12:52:33;;;;;;;65.60;7.95;;;28.90;58.00;;;;;;5030448;28;20044;-62
2022/07/03 12:54:59;;;;;;;58.83;8.07;;;29.00;57.80;;;;;;5034358;28;20036;-62
2022/07/03 13:00:17;;;;;;;40.60;5.63;;;29.20;56.90;;;;;;5031998;28;20144;-64
2022/07/03 13:02:44;;;;;;;35.88;5.88;;;29.20;56.70;;;;;;5019969;28;20041;-62
2022/07/03 13:05:19;;;;;;;45.88;5.85;;;29.30;57.10;;;;;;5035926;28;20025;-62
2022/07/03 13:07:45;;;;;;;;;;;29.40;56.80;;;;;;5034187;28;20029;-63